createdAt,value
2018-02-23T00:00:25.242Z,57.95
2018-02-23T00:01:05.787Z,58.17
2018-02-23T00:01:46.408Z,57.98
2018-02-23T00:02:26.868Z,58.17
2018-02-23T00:03:07.510Z,58.26
2018-02-23T00:03:48.035Z,57.7
2018-02-23T00:04:28.585Z,57.32
2018-02-23T00:05:09.046Z,57.04
2018-02-23T00:05:49.565Z,57.32
2018-02-23T00:06:30.142Z,57.13
2018-02-23T00:07:10.667Z,57.23
2018-02-23T00:07:51.224Z,56.94
2018-02-23T00:08:31.963Z,57.13
2018-02-23T00:09:12.457Z,57.23
2018-02-23T00:09:53.010Z,57.1
2018-02-23T00:10:33.568Z,56.72
2018-02-23T00:11:14.085Z,57.39
2018-02-23T00:11:54.660Z,57.67
2018-02-23T00:12:35.225Z,58.14
2018-02-23T00:13:15.794Z,58.05
2018-02-23T00:13:56.361Z,58.26
2018-02-23T00:14:36.914Z,57.57
2018-02-23T00:15:17.469Z,57.67
2018-02-23T00:15:58.067Z,58.05
2018-02-23T00:16:38.568Z,57.98
2018-02-23T00:17:19.089Z,57.98
2018-02-23T00:17:59.629Z,58.26
2018-02-23T00:18:40.188Z,57.79
2018-02-23T00:19:20.730Z,57.39
2018-02-23T00:20:01.293Z,57.51
2018-02-23T00:20:41.836Z,57.42
2018-02-23T00:21:22.363Z,57.29
2018-02-23T00:22:02.920Z,57.57
2018-02-23T00:22:43.494Z,57.42
2018-02-23T00:23:24.043Z,57.89
2018-02-23T00:24:04.593Z,57.67
2018-02-23T00:24:45.133Z,57.29
2018-02-23T00:25:25.669Z,57.48
2018-02-23T00:26:06.205Z,57.67
2018-02-23T00:26:46.750Z,57.89
2018-02-23T00:27:27.418Z,57.48
2018-02-23T00:28:07.961Z,57.51
2018-02-23T00:28:48.521Z,57.57
2018-02-23T00:29:29.070Z,57.67
2018-02-23T00:30:09.616Z,57.2
2018-02-23T00:30:50.164Z,57.95
2018-02-23T00:31:30.694Z,58.14
2018-02-23T00:32:11.261Z,57.95
2018-02-23T00:32:51.810Z,58.05
2018-02-23T00:33:32.338Z,58.33
2018-02-23T00:34:12.924Z,58.14
2018-02-23T00:34:53.464Z,58.14
2018-02-23T00:35:34.040Z,58.33
2018-02-23T00:36:14.572Z,58.24
2018-02-23T00:36:55.099Z,58.14
2018-02-23T00:37:35.680Z,58.52
2018-02-23T00:38:16.239Z,58.43
2018-02-23T00:38:56.826Z,58.52
2018-02-23T00:39:37.351Z,57.95
2018-02-23T00:40:17.986Z,58.14
2018-02-23T00:40:58.481Z,58.24
2018-02-23T00:41:39.174Z,58.43
2018-02-23T00:42:19.678Z,58.62
2018-02-23T00:43:00.243Z,58.43
2018-02-23T00:43:40.765Z,58.14
2018-02-23T00:44:21.318Z,58.05
2018-02-23T00:45:01.917Z,58.14
2018-02-23T00:45:42.461Z,57.86
2018-02-23T00:46:23.015Z,58.14
2018-02-23T00:47:03.573Z,57.95
2018-02-23T00:47:44.151Z,58.24
2018-02-23T00:48:24.755Z,57.95
2018-02-23T00:49:05.282Z,58.05
2018-02-23T00:49:45.821Z,58.14
2018-02-23T00:50:26.374Z,57.48
2018-02-23T00:51:06.941Z,57.76
2018-02-23T00:51:47.481Z,57.48
2018-02-23T00:52:28.013Z,58.05
2018-02-23T00:53:08.566Z,58.14
2018-02-23T00:53:49.122Z,58.17
2018-02-23T00:54:29.771Z,58.05
2018-02-23T00:55:10.299Z,57.39
2018-02-23T00:55:50.837Z,57.57
2018-02-23T00:56:31.390Z,57.29
2018-02-23T00:57:11.934Z,57.29
2018-02-23T00:57:52.495Z,57.29
2018-02-23T00:58:33.049Z,57.95
2018-02-23T00:59:13.593Z,58.26
2018-02-23T00:59:54.142Z,57.6
2018-02-23T01:00:34.741Z,57.67
2018-02-23T01:01:15.228Z,57.67
2018-02-23T01:01:55.807Z,57.67
2018-02-23T01:02:36.325Z,57.57
2018-02-23T01:03:16.995Z,58.14
2018-02-23T01:03:57.495Z,57.67
2018-02-23T01:04:38.073Z,57.48
2018-02-23T01:05:18.676Z,57.67
2018-02-23T01:05:59.222Z,57.86
2018-02-23T01:06:39.766Z,57.67
2018-02-23T01:07:20.313Z,57.39
2018-02-23T01:08:00.846Z,57.67
2018-02-23T01:08:41.405Z,57.57
2018-02-23T01:09:21.910Z,57.39
2018-02-23T01:10:02.467Z,57.29
2018-02-23T01:10:43.002Z,57.29
2018-02-23T01:11:23.578Z,57.48
2018-02-23T01:12:04.137Z,57.86
2018-02-23T01:12:44.689Z,58.17
2018-02-23T01:13:25.451Z,57.32
2018-02-23T01:14:06.092Z,57.32
2018-02-23T01:14:46.847Z,57.32
2018-02-23T01:15:27.235Z,57.13
2018-02-23T01:16:07.807Z,57.13
2018-02-23T01:16:48.317Z,57.1
2018-02-23T01:17:28.842Z,57.23
2018-02-23T01:18:09.386Z,56.91
2018-02-23T01:18:49.934Z,57.29
2018-02-23T01:19:30.513Z,57.29
2018-02-23T01:20:11.087Z,57.01
2018-02-23T01:20:52.529Z,57.1
2018-02-23T01:21:33.117Z,57.1
2018-02-23T01:22:13.662Z,57.2
2018-02-23T01:22:54.225Z,57.1
2018-02-23T01:23:34.770Z,56.94
2018-02-23T01:24:15.320Z,57.1
2018-02-23T01:24:55.882Z,57.04
2018-02-23T01:25:36.455Z,57.13
2018-02-23T01:26:16.996Z,56.85
2018-02-23T01:26:57.634Z,56.94
2018-02-23T01:27:38.162Z,56.94
2018-02-23T01:28:18.704Z,56.94
2018-02-23T01:28:59.252Z,56.94
2018-02-23T01:29:39.772Z,57.13
2018-02-23T01:30:20.316Z,57.23
2018-02-23T01:31:00.874Z,57.04
2018-02-23T01:31:41.434Z,56.75
2018-02-23T01:32:22.005Z,56.94
2018-02-23T01:33:02.724Z,57.13
2018-02-23T01:33:43.313Z,56.63
2018-02-23T01:34:23.804Z,57.1
2018-02-23T01:35:04.363Z,57.1
2018-02-23T01:35:44.965Z,57.1
2018-02-23T01:36:25.462Z,56.72
2018-02-23T01:37:06.009Z,57.01
2018-02-23T01:37:46.536Z,57.48
2018-02-23T01:38:27.100Z,57.2
2018-02-23T01:39:07.638Z,57.67
2018-02-23T01:39:48.273Z,57.48
2018-02-23T01:40:28.846Z,57.76
2018-02-23T01:41:09.343Z,57.2
2018-02-23T01:41:49.911Z,57.48
2018-02-23T01:42:30.422Z,57.57
2018-02-23T01:43:10.971Z,57.39
2018-02-23T01:43:51.583Z,57.67
2018-02-23T01:44:32.097Z,57.67
2018-02-23T01:45:12.649Z,57.57
2018-02-23T01:45:53.296Z,57.29
2018-02-23T01:46:33.996Z,57.2
2018-02-23T01:47:14.522Z,57.48
2018-02-23T01:47:55.070Z,57.67
2018-02-23T01:48:35.628Z,57.57
2018-02-23T01:49:16.189Z,57.7
2018-02-23T01:49:56.734Z,57.86
2018-02-23T01:50:37.284Z,57.42
2018-02-23T01:51:17.838Z,57.42
2018-02-23T01:51:58.439Z,57.04
2018-02-23T01:52:39.078Z,57.42
2018-02-23T01:53:19.719Z,57.23
2018-02-23T01:54:00.231Z,57.13
2018-02-23T01:54:40.809Z,57.13
2018-02-23T01:55:21.373Z,57.13
2018-02-23T01:56:01.950Z,56.94
2018-02-23T01:56:42.541Z,56.91
2018-02-23T01:57:23.094Z,56.91
2018-02-23T01:58:03.643Z,57.29
2018-02-23T01:58:44.249Z,57.29
2018-02-23T01:59:25.014Z,57.29
2018-02-23T02:00:05.570Z,57.39
2018-02-23T02:00:46.134Z,57.29
2018-02-23T02:01:26.687Z,58.05
2018-02-23T02:02:07.983Z,57.95
2018-02-23T02:02:48.729Z,57.86
2018-02-23T02:03:29.321Z,58.43
2018-02-23T02:04:09.879Z,58.52
2018-02-23T02:04:50.448Z,58.05
2018-02-23T02:05:30.987Z,58.24
2018-02-23T02:06:11.534Z,58.43
2018-02-23T02:06:52.090Z,58.05
2018-02-23T02:07:32.651Z,58.24
2018-02-23T02:08:13.196Z,58.14
2018-02-23T02:08:53.749Z,58.43
2018-02-23T02:09:34.354Z,58.52
2018-02-23T02:10:14.866Z,58.81
2018-02-23T02:10:55.402Z,58.52
2018-02-23T02:11:35.940Z,59.09
2018-02-23T02:12:16.500Z,58.71
2018-02-23T02:12:57.061Z,58.62
2018-02-23T02:13:37.617Z,58.81
2018-02-23T02:14:18.176Z,59
2018-02-23T02:14:58.742Z,58.52
2018-02-23T02:15:39.294Z,58.71
2018-02-23T02:16:19.912Z,58.62
2018-02-23T02:17:00.455Z,58.9
2018-02-23T02:17:41.000Z,58.43
2018-02-23T02:18:21.571Z,58.62
2018-02-23T02:19:02.127Z,58.43
2018-02-23T02:19:42.679Z,58.81
2018-02-23T02:20:23.248Z,58.9
2018-02-23T02:21:03.813Z,58.62
2018-02-23T02:21:44.396Z,58.43
2018-02-23T02:22:25.035Z,59
2018-02-23T02:23:05.612Z,58.43
2018-02-23T02:23:46.167Z,59.09
2018-02-23T02:24:26.724Z,58.43
2018-02-23T02:25:07.285Z,58.71
2018-02-23T02:25:47.870Z,59.38
2018-02-23T02:26:28.416Z,59.19
2018-02-23T02:27:08.973Z,58.9
2018-02-23T02:27:49.544Z,59.38
2018-02-23T02:28:30.121Z,59.28
2018-02-23T02:29:10.730Z,59.19
2018-02-23T02:29:51.226Z,59.38
2018-02-23T02:30:31.787Z,59.09
2018-02-23T02:31:12.365Z,58.71
2018-02-23T02:31:52.937Z,59.47
2018-02-23T02:32:33.495Z,59.38
2018-02-23T02:33:14.058Z,59.44
2018-02-23T02:33:54.609Z,59.38
2018-02-23T02:34:35.167Z,59.28
2018-02-23T02:35:15.747Z,59.56
2018-02-23T02:35:56.301Z,59
2018-02-23T02:36:36.856Z,59.09
2018-02-23T02:37:17.424Z,59.28
2018-02-23T02:37:57.977Z,59
2018-02-23T02:38:38.539Z,58.9
2018-02-23T02:39:19.098Z,58.71
2018-02-23T02:39:59.678Z,58.81
2018-02-23T02:40:40.296Z,59.09
2018-02-23T02:41:20.796Z,59.28
2018-02-23T02:42:01.364Z,59.09
2018-02-23T02:42:41.912Z,59.19
2018-02-23T02:43:22.460Z,59.09
2018-02-23T02:44:03.030Z,58.9
2018-02-23T02:44:43.596Z,58.9
2018-02-23T02:45:24.179Z,59.19
2018-02-23T02:46:04.729Z,59
2018-02-23T02:46:45.434Z,58.9
2018-02-23T02:47:26.020Z,59.09
2018-02-23T02:48:06.573Z,59.56
2018-02-23T02:48:47.114Z,59.19
2018-02-23T02:49:27.646Z,59
2018-02-23T02:50:08.250Z,59.56
2018-02-23T02:50:48.772Z,59.38
2018-02-23T02:51:29.322Z,59.47
2018-02-23T02:52:09.882Z,59.19
2018-02-23T02:52:50.809Z,59.47
2018-02-23T02:53:31.371Z,59
2018-02-23T02:54:11.925Z,59
2018-02-23T02:54:52.478Z,59.09
2018-02-23T02:55:33.043Z,59.16
2018-02-23T02:56:13.573Z,59.16
2018-02-23T02:56:54.143Z,59.63
2018-02-23T02:57:34.726Z,59.25
2018-02-23T02:58:15.496Z,60.19
2018-02-23T02:58:56.048Z,60.19
2018-02-23T02:59:36.605Z,60.19
2018-02-23T03:00:17.162Z,60
2018-02-23T03:00:57.736Z,59.91
2018-02-23T03:01:38.286Z,60.96
2018-02-23T03:02:18.867Z,60.77
2018-02-23T03:02:59.383Z,60.67
2018-02-23T03:03:40.107Z,60.77
2018-02-23T03:04:20.762Z,60.86
2018-02-23T03:05:01.256Z,60.77
2018-02-23T03:05:41.797Z,60.86
2018-02-23T03:06:22.352Z,60.67
2018-02-23T03:07:02.913Z,60.67
2018-02-23T03:07:43.576Z,60.77
2018-02-23T03:08:24.164Z,60.67
2018-02-23T03:09:04.697Z,60.67
2018-02-23T03:09:45.320Z,60.77
2018-02-23T03:10:25.999Z,60.58
2018-02-23T03:11:06.546Z,60.58
2018-02-23T03:11:47.086Z,61.05
2018-02-23T03:12:27.634Z,60.86
2018-02-23T03:13:08.194Z,60.77
2018-02-23T03:13:48.755Z,60.67
2018-02-23T03:14:29.304Z,60.58
2018-02-23T03:15:09.858Z,60.67
2018-02-23T03:15:51.184Z,60.67
2018-02-23T03:16:31.397Z,60.77
2018-02-23T03:17:11.934Z,60.77
2018-02-23T03:17:52.488Z,60.48
2018-02-23T03:18:33.023Z,60.58
2018-02-23T03:19:14.196Z,60.67
2018-02-23T03:21:02.411Z,60.77
2018-02-23T03:21:42.948Z,61.05
2018-02-23T03:22:23.514Z,60.86
2018-02-23T03:23:04.033Z,61.05
2018-02-23T03:23:44.613Z,60.86
2018-02-23T03:24:25.138Z,60.96
2018-02-23T03:25:05.703Z,60.77
2018-02-23T03:25:46.232Z,60.96
2018-02-23T03:26:26.800Z,61.43
2018-02-23T03:27:07.367Z,61.33
2018-02-23T03:27:47.917Z,61.05
2018-02-23T03:28:28.471Z,61.05
2018-02-23T03:29:09.027Z,60.96
2018-02-23T03:29:49.540Z,60.67
2018-02-23T03:30:30.081Z,60.67
2018-02-23T03:31:11.649Z,60.96
2018-02-23T03:31:52.150Z,60.96
2018-02-23T03:32:32.744Z,61.15
2018-02-23T03:33:13.284Z,61.24
2018-02-23T03:33:53.828Z,60.86
2018-02-23T03:34:34.398Z,60.86
2018-02-23T03:35:14.968Z,61.15
2018-02-23T03:35:55.525Z,61.15
2018-02-23T03:36:36.061Z,61.24
2018-02-23T03:37:16.669Z,61.33
2018-02-23T03:37:57.214Z,61.24
2018-02-23T03:38:37.762Z,61.24
2018-02-23T03:39:18.330Z,61.05
2018-02-23T03:39:58.856Z,61.05
2018-02-23T03:40:39.396Z,60.77
2018-02-23T03:41:19.943Z,60.96
2018-02-23T03:42:00.564Z,61.05
2018-02-23T03:42:41.056Z,61.24
2018-02-23T03:43:21.575Z,60.83
2018-02-23T03:44:02.134Z,60.83
2018-02-23T03:44:42.667Z,60.58
2018-02-23T03:45:23.223Z,60.93
2018-02-23T03:46:03.802Z,60.77
2018-02-23T03:46:44.342Z,60.96
2018-02-23T03:47:24.885Z,61.05
2018-02-23T03:48:05.474Z,60.96
2018-02-23T03:48:45.994Z,60.77
2018-02-23T03:49:26.848Z,61.05
2018-02-23T03:50:07.400Z,61.15
2018-02-23T03:50:47.941Z,60.86
2018-02-23T03:51:28.520Z,60.96
2018-02-23T03:52:09.806Z,61.24
2018-02-23T03:52:49.595Z,61.15
2018-02-23T03:53:30.171Z,60.58
2018-02-23T03:54:10.972Z,60.86
2018-02-23T03:54:51.532Z,61.05
2018-02-23T03:55:32.046Z,61.24
2018-02-23T03:56:12.574Z,60.86
2018-02-23T03:56:53.132Z,61.05
2018-02-23T03:57:33.686Z,60.48
2018-02-23T03:58:14.231Z,60.77
2018-02-23T03:58:54.781Z,60.77
2018-02-23T03:59:35.334Z,60.67
2018-02-23T04:00:15.866Z,60.48
2018-02-23T04:00:56.417Z,60.77
2018-02-23T04:01:36.982Z,60.38
2018-02-23T04:02:17.539Z,60.86
2018-02-23T04:02:58.092Z,60.29
2018-02-23T04:03:38.670Z,59.91
2018-02-23T04:04:19.401Z,60.29
2018-02-23T04:04:59.912Z,60.1
2018-02-23T04:05:40.472Z,60.19
2018-02-23T04:06:21.033Z,59.81
2018-02-23T04:07:01.582Z,60
2018-02-23T04:07:42.125Z,60.38
2018-02-23T04:08:22.698Z,60.29
2018-02-23T04:09:03.245Z,60.48
2018-02-23T04:09:43.800Z,60.1
2018-02-23T04:10:24.341Z,60.19
2018-02-23T04:11:04.906Z,60.38
2018-02-23T04:11:45.440Z,60.19
2018-02-23T04:12:26.010Z,60.1
2018-02-23T04:13:06.590Z,60.1
2018-02-23T04:13:47.152Z,60
2018-02-23T04:14:27.702Z,59.72
2018-02-23T04:15:08.269Z,60
2018-02-23T04:15:48.795Z,59.63
2018-02-23T04:16:29.339Z,60
2018-02-23T04:17:09.891Z,60.1
2018-02-23T04:17:50.436Z,60.96
2018-02-23T04:18:30.990Z,60.58
2018-02-23T04:19:11.525Z,60.67
2018-02-23T04:19:52.093Z,60.67
2018-02-23T04:20:32.640Z,60.77
2018-02-23T04:21:13.160Z,60.29
2018-02-23T04:21:53.723Z,61.05
2018-02-23T04:22:34.277Z,60.96
2018-02-23T04:23:14.823Z,60.86
2018-02-23T04:23:55.384Z,60.77
2018-02-23T04:24:35.926Z,61.05
2018-02-23T04:25:16.482Z,60.77
2018-02-23T04:25:57.018Z,60.77
2018-02-23T04:26:37.591Z,60.96
2018-02-23T04:27:18.137Z,60.96
2018-02-23T04:27:58.694Z,60.96
2018-02-23T04:28:39.252Z,61.21
2018-02-23T04:29:20.319Z,61.21
2018-02-23T04:30:00.469Z,61.68
2018-02-23T04:30:41.040Z,61.87
2018-02-23T04:31:21.549Z,61.58
2018-02-23T04:32:02.074Z,61.77
2018-02-23T04:32:42.651Z,61.68
2018-02-23T04:33:23.196Z,61.96
2018-02-23T04:34:03.744Z,62.15
2018-02-23T04:34:44.306Z,62.25
2018-02-23T04:35:24.861Z,62.06
2018-02-23T04:36:05.406Z,62.15
2018-02-23T04:36:45.966Z,61.68
2018-02-23T04:37:26.505Z,61.58
2018-02-23T04:38:07.063Z,61.58
2018-02-23T04:38:48.275Z,61.49
2018-02-23T04:39:28.814Z,61.77
2018-02-23T04:40:09.357Z,61.68
2018-02-23T04:40:49.891Z,61.87
2018-02-23T04:41:30.460Z,61.77
2018-02-23T04:42:11.009Z,61.96
2018-02-23T04:42:51.561Z,61.61
2018-02-23T04:43:32.127Z,61.68
2018-02-23T04:44:12.676Z,61.77
2018-02-23T04:44:53.257Z,61.77
2018-02-23T04:45:33.812Z,61.68
2018-02-23T04:46:14.373Z,61.99
2018-02-23T04:46:54.918Z,61.61
2018-02-23T04:47:35.466Z,61.8
2018-02-23T04:48:16.032Z,61.52
2018-02-23T04:48:56.604Z,61.43
2018-02-23T04:49:37.142Z,60.93
2018-02-23T04:50:17.701Z,61.68
2018-02-23T04:50:58.249Z,61.58
2018-02-23T04:51:38.787Z,61.58
2018-02-23T04:52:19.338Z,61.77
2018-02-23T04:52:59.887Z,61.77
2018-02-23T04:53:40.445Z,61.77
2018-02-23T04:54:20.986Z,61.68
2018-02-23T04:55:01.542Z,61.68
2018-02-23T04:55:42.094Z,62.06
2018-02-23T04:56:22.663Z,61.96
2018-02-23T04:57:03.213Z,61.77
2018-02-23T04:57:43.799Z,61.87
2018-02-23T04:58:24.364Z,61.68
2018-02-23T04:59:04.904Z,61.77
2018-02-23T04:59:45.464Z,62.15
2018-02-23T05:00:26.020Z,61.58
2018-02-23T05:01:06.578Z,61.58
2018-02-23T05:01:47.129Z,61.61
2018-02-23T05:02:27.685Z,61.8
2018-02-23T05:03:08.231Z,61.71
2018-02-23T05:03:48.779Z,61.99
2018-02-23T05:04:29.339Z,61.52
2018-02-23T05:05:09.903Z,61.33
2018-02-23T05:05:50.459Z,61.15
2018-02-23T05:06:31.005Z,61.43
2018-02-23T05:07:11.569Z,61.71
2018-02-23T05:07:52.138Z,61.68
2018-02-23T05:08:32.696Z,61.77
2018-02-23T05:09:13.243Z,61.87
2018-02-23T05:09:53.798Z,62.34
2018-02-23T05:10:34.366Z,62.06
2018-02-23T05:11:14.904Z,62.06
2018-02-23T05:11:55.448Z,62.15
2018-02-23T05:12:35.988Z,62.06
2018-02-23T05:13:16.540Z,62.15
2018-02-23T05:13:57.090Z,62.44
2018-02-23T05:14:37.632Z,62.53
2018-02-23T05:15:18.390Z,62.53
2018-02-23T05:15:58.926Z,62.34
2018-02-23T05:16:39.491Z,62.34
2018-02-23T05:17:20.074Z,62.53
2018-02-23T05:18:00.644Z,62.63
2018-02-23T05:18:41.208Z,62.34
2018-02-23T05:19:21.746Z,62.34
2018-02-23T05:20:02.308Z,61.96
2018-02-23T05:20:42.848Z,62.44
2018-02-23T05:21:23.460Z,61.77
2018-02-23T05:22:03.984Z,61.96
2018-02-23T05:22:44.546Z,61.96
2018-02-23T05:23:25.073Z,61.77
2018-02-23T05:24:05.688Z,61.96
2018-02-23T05:24:46.249Z,61.96
2018-02-23T05:25:26.805Z,61.77
2018-02-23T05:26:07.338Z,62.44
2018-02-23T05:26:47.866Z,62.44
2018-02-23T05:27:28.423Z,62.63
2018-02-23T05:28:08.974Z,62.06
2018-02-23T05:28:49.543Z,62.91
2018-02-23T05:29:30.109Z,62.82
2018-02-23T05:30:10.662Z,63.29
2018-02-23T05:30:51.206Z,63.29
2018-02-23T05:31:31.780Z,63.29
2018-02-23T05:32:12.336Z,63.39
2018-02-23T05:32:52.888Z,63.1
2018-02-23T05:33:33.434Z,62.82
2018-02-23T05:34:14.008Z,62.91
2018-02-23T05:34:54.549Z,63.01
2018-02-23T05:35:35.114Z,62.72
2018-02-23T05:36:15.651Z,62.34
2018-02-23T05:36:56.196Z,62.72
2018-02-23T05:37:36.751Z,62.72
2018-02-23T05:38:17.307Z,62.63
2018-02-23T05:38:57.866Z,62.15
2018-02-23T05:39:38.435Z,62.44
2018-02-23T05:40:18.996Z,62.53
2018-02-23T05:40:59.567Z,62.34
2018-02-23T05:41:40.133Z,62.72
2018-02-23T05:42:20.679Z,62.91
2018-02-23T05:43:01.224Z,62.82
2018-02-23T05:43:41.811Z,63.29
2018-02-23T05:44:22.360Z,62.15
2018-02-23T05:45:02.928Z,62.06
2018-02-23T05:45:43.480Z,62.44
2018-02-23T05:46:24.048Z,61.96
2018-02-23T05:47:04.595Z,62.63
2018-02-23T05:47:45.161Z,62.25
2018-02-23T05:48:25.724Z,62.34
2018-02-23T05:49:06.301Z,62.37
2018-02-23T05:49:46.851Z,62.28
2018-02-23T05:50:27.411Z,61.87
2018-02-23T05:51:07.948Z,61.96
2018-02-23T05:51:48.501Z,62.06
2018-02-23T05:52:29.097Z,62.15
2018-02-23T05:53:09.644Z,62.15
2018-02-23T05:53:50.196Z,62.15
2018-02-23T05:54:30.777Z,62.25
2018-02-23T05:55:11.344Z,62.91
2018-02-23T05:55:51.901Z,63.29
2018-02-23T05:56:32.465Z,63.1
2018-02-23T05:57:13.023Z,62.82
2018-02-23T05:57:53.608Z,62.82
2018-02-23T05:58:34.161Z,62.44
2018-02-23T05:59:14.717Z,62.72
2018-02-23T05:59:55.282Z,62.72
2018-02-23T06:00:35.828Z,62.72
2018-02-23T06:01:16.390Z,62.63
2018-02-23T06:01:56.951Z,62.72
2018-02-23T06:02:37.505Z,62.72
2018-02-23T06:03:18.069Z,62.44
2018-02-23T06:03:58.612Z,62.82
2018-02-23T06:04:39.183Z,63.1
2018-02-23T06:05:19.739Z,62.91
2018-02-23T06:06:00.303Z,62.91
2018-02-23T06:06:40.874Z,62.82
2018-02-23T06:07:21.430Z,62.72
2018-02-23T06:08:02.036Z,62.72
2018-02-23T06:08:42.586Z,62.72
2018-02-23T06:09:23.172Z,63.01
2018-02-23T06:10:03.714Z,63.2
2018-02-23T06:10:44.265Z,63.29
2018-02-23T06:11:24.822Z,63.01
2018-02-23T06:12:05.402Z,63.2
2018-02-23T06:12:45.969Z,63.2
2018-02-23T06:13:26.545Z,62.82
2018-02-23T06:14:07.096Z,63.39
2018-02-23T06:14:47.670Z,63.01
2018-02-23T06:15:28.220Z,63.01
2018-02-23T06:16:08.775Z,63.2
2018-02-23T06:16:49.330Z,63.2
2018-02-23T06:17:29.892Z,63.2
2018-02-23T06:18:10.450Z,63.57
2018-02-23T06:18:51.014Z,63.2
2018-02-23T06:19:31.559Z,63.2
2018-02-23T06:20:12.110Z,63.2
2018-02-23T06:20:52.706Z,63.85
2018-02-23T06:21:33.252Z,63.85
2018-02-23T06:22:13.828Z,63.85
2018-02-23T06:22:54.391Z,64.33
2018-02-23T06:23:34.949Z,63.67
2018-02-23T06:24:15.521Z,64.23
2018-02-23T06:24:56.070Z,63.95
2018-02-23T06:25:36.647Z,64.23
2018-02-23T06:26:17.216Z,63.67
2018-02-23T06:26:57.783Z,64.71
2018-02-23T06:27:38.341Z,64.61
2018-02-23T06:28:18.918Z,64.61
2018-02-23T06:28:59.498Z,64.04
2018-02-23T06:29:40.098Z,63.85
2018-02-23T06:30:20.664Z,63.2
2018-02-23T06:31:01.214Z,64.33
2018-02-23T06:31:41.782Z,64.04
2018-02-23T06:32:22.339Z,64.61
2018-02-23T06:33:02.904Z,64.61
2018-02-23T06:33:43.446Z,64.8
2018-02-23T06:34:24.002Z,64.61
2018-02-23T06:35:04.550Z,64.42
2018-02-23T06:35:45.127Z,63.95
2018-02-23T06:36:25.688Z,64.42
2018-02-23T06:37:06.249Z,64.33
2018-02-23T06:37:46.812Z,64.23
2018-02-23T06:38:27.359Z,64.61
2018-02-23T06:39:07.913Z,64.23
2018-02-23T06:39:48.467Z,64.61
2018-02-23T06:40:29.032Z,64.33
2018-02-23T06:41:09.593Z,64.71
2018-02-23T06:41:50.146Z,64.52
2018-02-23T06:42:30.730Z,64.33
2018-02-23T06:43:11.309Z,64.61
2018-02-23T06:43:51.871Z,64.23
2018-02-23T06:44:32.418Z,63.95
2018-02-23T06:45:12.981Z,64.61
2018-02-23T06:45:53.547Z,64.61
2018-02-23T06:46:34.083Z,64.8
2018-02-23T06:47:14.653Z,64.71
2018-02-23T06:47:55.215Z,64.23
2018-02-23T06:48:35.759Z,64.33
2018-02-23T06:49:16.355Z,63.29
2018-02-23T06:49:56.916Z,63.01
2018-02-23T06:50:37.460Z,63.57
2018-02-23T06:51:18.088Z,63.76
2018-02-23T06:51:58.649Z,63.67
2018-02-23T06:52:39.188Z,63.39
2018-02-23T06:53:19.747Z,64.04
2018-02-23T06:54:00.318Z,64.04
2018-02-23T06:54:40.894Z,63.57
2018-02-23T06:55:21.444Z,63.85
2018-02-23T06:56:02.002Z,63.39
2018-02-23T06:56:42.557Z,63.39
2018-02-23T06:57:23.120Z,63.76
2018-02-23T06:58:03.679Z,64.14
2018-02-23T06:58:44.286Z,64.23
2018-02-23T06:59:24.870Z,64.42
2018-02-23T07:00:05.412Z,64.61
2018-02-23T07:00:45.968Z,64.14
2018-02-23T07:01:26.545Z,63.39
2018-02-23T07:02:07.114Z,63.67
2018-02-23T07:02:47.694Z,63.57
2018-02-23T07:03:28.221Z,64.42
2018-02-23T07:04:08.790Z,64.23
2018-02-23T07:04:49.359Z,64.61
2018-02-23T07:05:29.948Z,64.61
2018-02-23T07:06:10.489Z,64.33
2018-02-23T07:06:51.036Z,64.04
2018-02-23T07:07:31.600Z,66.5
2018-02-23T07:08:12.160Z,65.84
2018-02-23T07:08:52.738Z,65.37
2018-02-23T07:09:33.294Z,64.23
2018-02-23T07:10:13.978Z,63.85
2018-02-23T07:10:54.526Z,64.42
2018-02-23T07:11:35.073Z,63.95
2018-02-23T07:12:15.627Z,64.14
2018-02-23T07:12:56.181Z,63.67
2018-02-23T07:13:36.775Z,66.92
2018-02-23T07:14:17.335Z,68.05
2018-02-23T07:14:57.891Z,67.58
2018-02-23T07:15:38.486Z,68.24
2018-02-23T07:16:19.055Z,67.96
2018-02-23T07:16:59.613Z,66.82
2018-02-23T07:17:40.191Z,86.6
2018-02-23T07:18:20.738Z,99.99
2018-02-23T07:19:01.298Z,99.99
2018-02-23T07:19:41.878Z,99.99
2018-02-23T07:20:22.443Z,99.99
2018-02-23T07:21:03.008Z,99.99
2018-02-23T07:21:43.571Z,99.99
2018-02-23T07:22:24.125Z,99.99
2018-02-23T07:23:04.696Z,99.99
2018-02-23T07:23:45.261Z,99.99
2018-02-23T07:24:25.826Z,97.25
2018-02-23T07:25:07.980Z,86.7
2018-02-23T07:25:48.433Z,81.4
2018-02-23T07:26:29.004Z,75.91
2018-02-23T07:27:09.755Z,73.54
2018-02-23T07:27:50.347Z,71.84
2018-02-23T07:28:30.897Z,69.38
2018-02-23T07:29:11.493Z,68.05
2018-02-23T07:29:52.068Z,70.89
2018-02-23T07:30:32.693Z,75.81
2018-02-23T07:31:13.230Z,75.43
2018-02-23T07:31:53.817Z,93.7
2018-02-23T07:32:34.352Z,99.99
2018-02-23T07:33:14.929Z,99.99
2018-02-23T07:33:55.486Z,97.16
2018-02-23T07:34:36.051Z,99.99
2018-02-23T07:35:16.623Z,99.52
2018-02-23T07:35:57.197Z,88.45
2018-02-23T07:36:37.739Z,79.69
2018-02-23T07:37:18.302Z,73.16
2018-02-23T07:37:58.842Z,70.32
2018-02-23T07:38:39.399Z,70.7
2018-02-23T07:39:19.982Z,69.85
2018-02-23T07:40:00.546Z,67.86
2018-02-23T07:40:41.161Z,66.73
2018-02-23T07:41:21.739Z,66.53
2018-02-23T07:42:02.306Z,66.06
2018-02-23T07:42:42.862Z,65.78
2018-02-23T07:43:23.405Z,65.12
2018-02-23T07:44:03.963Z,65.02
2018-02-23T07:44:44.549Z,64.8
2018-02-23T07:45:25.139Z,64.74
2018-02-23T07:46:05.691Z,65.31
2018-02-23T07:46:46.282Z,65.4
2018-02-23T07:47:26.861Z,65.09
2018-02-23T07:48:07.407Z,65.5
2018-02-23T07:48:47.952Z,65.69
2018-02-23T07:49:28.508Z,65.09
2018-02-23T07:50:09.066Z,63.98
2018-02-23T07:50:49.631Z,64.33
2018-02-23T07:51:30.363Z,64.14
2018-02-23T07:52:11.346Z,64.52
2018-02-23T07:52:51.904Z,67.2
2018-02-23T07:53:32.448Z,67.3
2018-02-23T07:54:13.039Z,67.11
2018-02-23T07:54:53.600Z,65.84
2018-02-23T07:55:34.159Z,64.8
2018-02-23T07:56:14.735Z,65.75
2018-02-23T07:56:55.314Z,65.37
2018-02-23T07:57:35.926Z,65.56
2018-02-23T07:58:16.492Z,65.18
2018-02-23T07:58:57.044Z,65.18
2018-02-23T07:59:37.591Z,64.61
2018-02-23T08:00:18.131Z,64.9
2018-02-23T08:00:58.698Z,69.28
2018-02-23T08:01:39.241Z,95.69
2018-02-23T08:02:19.799Z,99.99
2018-02-23T08:03:00.342Z,98.06
2018-02-23T08:03:40.883Z,99.99
2018-02-23T08:04:21.490Z,99.99
2018-02-23T08:05:02.061Z,99.99
2018-02-23T08:05:42.616Z,99.99
2018-02-23T08:06:23.213Z,99.99
2018-02-23T08:07:03.734Z,89.54
2018-02-23T08:07:44.279Z,80.83
2018-02-23T08:08:24.859Z,74.68
2018-02-23T08:09:05.478Z,70.89
2018-02-23T08:09:46.024Z,68.9
2018-02-23T08:10:26.568Z,68.33
2018-02-23T08:11:07.133Z,66.82
2018-02-23T08:11:47.686Z,68.9
2018-02-23T08:12:28.270Z,80.45
2018-02-23T08:13:08.820Z,99.99
2018-02-23T08:13:49.360Z,99.99
2018-02-23T08:14:29.912Z,99.99
2018-02-23T08:15:11.539Z,99.99
2018-02-23T08:15:52.111Z,99.99
2018-02-23T08:16:34.108Z,97.63
2018-02-23T08:17:13.751Z,99.99
2018-02-23T08:17:54.296Z,91.67
2018-02-23T08:18:34.832Z,99.99
2018-02-23T08:19:15.398Z,99.99
2018-02-23T08:19:55.958Z,94.51
2018-02-23T08:20:36.520Z,83.05
2018-02-23T08:21:17.072Z,77.46
2018-02-23T08:21:57.626Z,72.41
2018-02-23T08:22:38.172Z,70.61
2018-02-23T08:23:18.715Z,68.52
2018-02-23T08:23:59.292Z,68.15
2018-02-23T08:24:39.855Z,67.58
2018-02-23T08:25:20.464Z,80.3
2018-02-23T08:26:00.978Z,88.17
2018-02-23T08:26:41.537Z,84.66
2018-02-23T08:27:22.152Z,81.87
2018-02-23T08:28:02.696Z,78.13
2018-02-23T08:28:43.679Z,76.89
2018-02-23T08:29:24.409Z,73.86
2018-02-23T08:30:05.215Z,92.85
2018-02-23T08:30:45.905Z,84.75
2018-02-23T08:31:26.510Z,77.46
2018-02-23T08:32:07.136Z,73.86
2018-02-23T08:32:47.817Z,70.42
2018-02-23T08:33:28.402Z,68.37
2018-02-23T08:34:09.007Z,66.95
2018-02-23T08:34:49.536Z,65.88
2018-02-23T08:35:30.072Z,65.02
2018-02-23T08:36:10.645Z,64.45
2018-02-23T08:36:51.376Z,65.02
2018-02-23T08:37:31.923Z,64.83
2018-02-23T08:38:12.585Z,64.36
2018-02-23T08:38:53.072Z,63.89
2018-02-23T08:39:33.655Z,64.26
2018-02-23T08:40:14.138Z,65.4
2018-02-23T08:40:54.710Z,65.69
2018-02-23T08:41:35.363Z,66.53
2018-02-23T08:42:16.049Z,65.69
2018-02-23T08:42:56.683Z,64.74
2018-02-23T08:43:37.225Z,65.02
2018-02-23T08:44:17.754Z,65.72
2018-02-23T08:44:58.293Z,65.44
2018-02-23T08:45:38.807Z,65.5
2018-02-23T08:46:19.365Z,65.31